Airfield :
LOGIN :

Register | Disclaimer

   EN    FR    IT 

 










Legend :    VFR   Marginal VFR   IFR   Intensive IFR   Very Intensive IFR
Visi :
Ceiling :
>= 8 km
>= 3000ft
5 to 8 km
1000 to 3000 ft
1500m to 5 km
500 to 1000 ft
800 to 1500m
200 to 500 ft
< 800m
< 200 ft
Symbols :   Thunderstorms  Fog  Heavy snow  Heavy precipitations  Wind > 20 kt
SIGMETs :     Misc.  Thunderstorms  Icing  Turbulence  Mountain Waves  Volcanic Ashes






- Airport Elevation : 1708 ft
- IATA code : SJJ


LQSA - Sarajevo

CURRENT METAR :
  • 180630Z VRB01KT CAVOK 20/14 Q1021 NOSIG

EXPIRED METARs :
  • 180600Z VRB02KT CAVOK 17/14 Q1021 NOSIG
  • 180530Z VRB02KT CAVOK 17/13 Q1021 NOSIG
  • 180500Z 00000KT CAVOK 15/13 Q1020 NOSIG
  • 180430Z VRB02KT CAVOK 14/13 Q1020 NOSIG
  • 180400Z 16003KT CAVOK 14/12 Q1020 NOSIG
  • 180330Z 13004KT CAVOK 14/12 Q1020
  • 180300Z 15001KT CAVOK 14/12 Q1020
  • 180230Z VRB02KT CAVOK 14/12 Q1020
  • 180200Z 11003KT CAVOK 15/12 Q1020

TAF TAF LQSA
Valid from the 18 at 06:00 until the 19 at 06:00 UTC


180500Z 1806/1906 VRB02KT CAVOK TX32/1814Z TN16/1903Z



MET'MAP, your aeronautical weather chart ! - Copyright ORBIFLY December 2007 - Disclaimer

ORBIFLY MET'MAP TEAM :

Programming & Development : Alexandra Zaïnal
Original concept : Baudouin d'Aumeries
Technical & hardware support : Manuel Goepfert
Assistance : Marc-Olivier Méhu




SOURCES & CREDITS :

   NOAA